Time;durP1;ratioP1;P1;durP2;ratioP2;P2;SDS_P1;SDS_P2;PMS_P1;PMS_P2;Temp;Humidity;BMP_temperature;BMP_pressure;BME280_temperature;BME280_humidity;BME280_pressure;Samples;Min_cycle;Max_cycle;Signal;HPM_P1;HPM_P2
2022/08/27 00:00:14;;;;;;;34.22;22.25;;;24.90;58.00;;;;;;4989543;28;20424;-84
2022/08/27 00:02:41;;;;;;;32.63;21.15;;;24.90;56.80;;;;;;4990268;28;20044;-87
2022/08/27 00:05:10;;;;;;;30.55;21.30;;;25.00;56.00;;;;;;4974229;28;20068;-84
2022/08/27 00:07:36;;;;;;;35.17;20.58;;;25.00;56.20;;;;;;5005069;28;20034;-92
2022/08/27 00:10:04;;;;;;;34.08;21.65;;;24.90;57.30;;;;;;4974817;28;20104;-88
2022/08/27 00:12:30;;;;;;;34.55;22.33;;;24.90;57.80;;;;;;4989027;28;20026;-88
2022/08/27 00:14:57;;;;;;;34.40;21.92;;;24.80;57.20;;;;;;4990459;28;20041;-88
2022/08/27 00:17:23;;;;;;;39.78;22.98;;;24.80;56.70;;;;;;4968121;28;20066;-86
2022/08/27 00:19:49;;;;;;;45.45;24.27;;;24.70;56.50;;;;;;5005061;28;20034;-87
2022/08/27 00:22:15;;;;;;;35.72;23.50;;;24.70;56.50;;;;;;4989902;28;20038;-85
2022/08/27 00:24:41;;;;;;;41.03;24.55;;;24.70;56.80;;;;;;5004261;28;20038;-84
2022/08/27 00:27:07;;;;;;;31.58;22.60;;;24.70;56.90;;;;;;4985651;28;20034;-81
2022/08/27 00:29:33;;;;;;;33.45;22.30;;;24.60;57.30;;;;;;4971681;28;20038;-88
2022/08/27 00:31:59;;;;;;;39.70;24.52;;;24.60;57.30;;;;;;4987218;28;20050;-86
2022/08/27 00:34:25;;;;;;;44.15;24.67;;;24.60;57.50;;;;;;4992766;28;20030;-83
2022/08/27 00:36:52;;;;;;;34.45;23.77;;;24.50;57.40;;;;;;4972175;28;20151;-84
2022/08/27 00:39:19;;;;;;;37.50;24.65;;;24.50;58.70;;;;;;4992309;28;20125;-89
2022/08/27 00:41:46;;;;;;;34.15;23.25;;;24.40;57.90;;;;;;4994546;28;20030;-87
2022/08/27 00:44:12;;;;;;;38.50;24.00;;;24.40;58.40;;;;;;4991659;28;20129;-85
2022/08/27 00:46:44;;;;;;;37.72;24.60;;;24.40;58.80;;;;;;4982341;28;20035;-87
2022/08/27 00:49:19;;;;;;;28.13;19.40;;;24.40;58.70;;;;;;5006831;28;20152;-87
2022/08/27 00:51:50;;;;;;;33.40;20.55;;;24.20;60.70;;;;;;4969069;28;20065;-86
2022/08/27 00:54:17;;;;;;;35.35;22.27;;;24.20;61.00;;;;;;5004485;28;20121;-87
2022/08/27 00:56:44;;;;;;;44.05;28.58;;;24.20;61.20;;;;;;4972243;28;20037;-87
2022/08/27 00:59:13;;;;;;;42.33;26.23;;;24.20;59.30;;;;;;4985779;28;20077;-87
2022/08/27 01:04:26;;;;;;;45.92;27.52;;;24.00;61.20;;;;;;4989953;28;20035;-87
2022/08/27 01:06:53;;;;;;;45.65;32.55;;;24.10;60.60;;;;;;4989866;28;20046;-89
2022/08/27 01:09:19;;;;;;;53.70;35.85;;;24.10;58.80;;;;;;4972636;28;20117;-84
2022/08/27 01:11:46;;;;;;;56.85;34.97;;;24.00;58.20;;;;;;4988968;28;20108;-81
2022/08/27 01:14:13;;;;;;;52.63;33.58;;;24.10;58.00;;;;;;4987462;28;20471;-82
2022/08/27 01:16:45;;;;;;;49.25;33.60;;;24.10;58.30;;;;;;4987269;28;20073;-82
2022/08/27 01:19:26;;;;;;;43.15;31.05;;;24.20;58.10;;;;;;4986781;28;20038;-81
2022/08/27 01:22:00;;;;;;;49.67;31.00;;;24.20;58.20;;;;;;4981312;28;20035;-80
2022/08/27 01:24:34;;;;;;;55.15;33.08;;;24.10;58.40;;;;;;4986879;28;20501;-82
2022/08/27 01:27:03;;;;;;;55.60;34.00;;;24.10;58.30;;;;;;4987081;28;20096;-80
2022/08/27 01:29:30;;;;;;;51.30;34.05;;;24.10;58.20;;;;;;4987255;28;20131;-81
2022/08/27 01:32:08;;;;;;;62.63;37.00;;;24.10;58.40;;;;;;4981372;28;20038;-80
2022/08/27 01:34:34;;;;;;;54.40;31.75;;;24.00;58.40;;;;;;5002292;28;20073;-80
2022/08/27 01:37:00;;;;;;;66.80;41.95;;;24.00;60.00;;;;;;5002539;28;20575;-85
2022/08/27 01:39:26;;;;;;;61.13;41.00;;;23.90;59.40;;;;;;4966026;28;20038;-89
2022/08/27 01:41:53;;;;;;;72.10;46.08;;;23.90;58.70;;;;;;4989583;28;20066;-90
2022/08/27 01:44:19;;;;;;;73.50;46.95;;;23.90;58.50;;;;;;4991918;28;20038;-90
2022/08/27 01:46:44;;;;;;;53.75;35.63;;;23.90;58.30;;;;;;4953890;28;20030;-90
2022/08/27 01:49:10;;;;;;;41.28;28.92;;;23.80;60.00;;;;;;4992162;28;20034;-88
2022/08/27 01:51:36;;;;;;;62.30;43.30;;;23.80;61.40;;;;;;4998498;28;20034;-85
2022/08/27 01:54:02;;;;;;;82.38;53.28;;;23.80;60.30;;;;;;4989747;28;20064;-86
2022/08/27 01:56:28;;;;;;;75.63;50.95;;;23.70;59.10;;;;;;4969447;28;20042;-83
2022/08/27 01:58:54;;;;;;;90.65;60.72;;;23.80;59.10;;;;;;4989916;28;20031;-86
2022/08/27 02:01:20;;;;;;;106.20;69.50;;;23.80;58.80;;;;;;4979644;28;20062;-84
2022/08/27 02:03:48;;;;;;;97.43;61.83;;;23.70;58.40;;;;;;4975805;28;20042;-83
2022/08/27 02:06:14;;;;;;;100.28;68.13;;;23.80;58.50;;;;;;4956334;28;20041;-89
2022/08/27 02:08:40;;;;;;;103.55;66.25;;;23.80;58.50;;;;;;4979353;28;20132;-87
2022/08/27 02:11:07;;;;;;;106.57;68.13;;;23.80;58.50;;;;;;4995048;28;20512;-91
2022/08/27 02:13:33;;;;;;;112.05;71.50;;;23.70;58.60;;;;;;4975867;28;20049;-89
2022/08/27 02:15:59;;;;;;;105.90;70.15;;;23.70;58.80;;;;;;4993181;28;20660;-89
2022/08/27 02:18:25;;;;;;;105.07;72.13;;;23.60;58.90;;;;;;4979194;28;20034;-88
2022/08/27 02:20:51;;;;;;;100.40;69.30;;;23.60;59.00;;;;;;4987495;28;20046;-90
2022/08/27 02:23:17;;;;;;;102.95;71.10;;;23.70;59.00;;;;;;4972360;28;20026;-90
2022/08/27 02:25:46;;;;;;;109.68;72.15;;;23.60;59.70;;;;;;4988306;28;20038;-90
2022/08/27 02:28:12;;;;;;;94.55;64.63;;;23.60;59.10;;;;;;5003405;28;20045;-84
2022/08/27 02:30:38;;;;;;;101.95;63.17;;;23.60;59.30;;;;;;4994787;28;20127;-86
2022/08/27 02:33:05;;;;;;;103.15;67.72;;;23.60;59.60;;;;;;4987602;28;20041;-86
2022/08/27 02:35:33;;;;;;;95.93;63.40;;;23.50;59.70;;;;;;4986117;28;20033;-85
2022/08/27 02:38:00;;;;;;;100.38;67.03;;;23.50;60.00;;;;;;4970250;28;20085;-86
2022/08/27 02:40:27;;;;;;;91.35;64.50;;;23.50;60.00;;;;;;4985569;28;20038;-84
2022/08/27 02:42:53;;;;;;;97.47;65.50;;;23.50;60.00;;;;;;4984778;28;20042;-82
2022/08/27 02:45:19;;;;;;;108.60;73.35;;;23.40;60.40;;;;;;4986764;28;20038;-84
2022/08/27 02:47:46;;;;;;;111.30;75.45;;;23.30;60.50;;;;;;4980571;28;20038;-84
2022/08/27 02:50:13;;;;;;;124.97;86.05;;;23.30;60.30;;;;;;4987625;28;20034;-84
2022/08/27 02:52:40;;;;;;;106.43;74.43;;;23.30;60.20;;;;;;4978332;28;20042;-84
2022/08/27 02:55:06;;;;;;;103.22;68.10;;;23.30;60.40;;;;;;4990692;28;20121;-82
2022/08/27 02:57:33;;;;;;;112.10;68.78;;;23.30;60.60;;;;;;4980243;28;20061;-82
2022/08/27 03:00:00;;;;;;;112.22;74.93;;;23.40;60.70;;;;;;4991768;28;20406;-84
2022/08/27 03:02:26;;;;;;;112.00;76.90;;;23.30;60.70;;;;;;4983098;28;20108;-84
2022/08/27 03:04:52;;;;;;;119.80;83.45;;;23.30;61.00;;;;;;4989147;28;20481;-83
2022/08/27 03:07:18;;;;;;;121.93;84.82;;;23.30;60.70;;;;;;4989474;28;20046;-84
2022/08/27 03:09:44;;;;;;;124.88;86.40;;;23.30;60.40;;;;;;4988678;28;20034;-82
2022/08/27 03:12:10;;;;;;;100.82;68.78;;;23.30;60.30;;;;;;4968356;28;20130;-83
2022/08/27 03:14:36;;;;;;;115.65;82.15;;;23.30;61.50;;;;;;4989363;28;20067;-82
2022/08/27 03:19:47;;;;;;;126.60;84.38;;;23.30;60.60;;;;;;4990013;28;20034;-84
2022/08/27 03:22:13;;;;;;;102.55;73.65;;;23.30;61.30;;;;;;4990776;28;20038;-83
2022/08/27 03:24:39;;;;;;;106.13;73.82;;;23.30;61.60;;;;;;4973649;28;20049;-81
2022/08/27 03:27:07;;;;;;;123.55;86.78;;;23.30;62.30;;;;;;4989028;28;20038;-81
2022/08/27 03:29:34;;;;;;;112.57;82.35;;;23.30;61.30;;;;;;4990338;28;20109;-82
2022/08/27 03:32:00;;;;;;;124.68;82.20;;;23.30;61.60;;;;;;4990470;28;20514;-83
2022/08/27 03:34:26;;;;;;;110.65;79.78;;;23.30;62.20;;;;;;4989710;28;20031;-82
2022/08/27 03:36:52;;;;;;;121.95;82.90;;;23.30;61.90;;;;;;5003371;28;20070;-83
2022/08/27 03:39:18;;;;;;;118.97;86.13;;;23.40;61.80;;;;;;4989920;28;20058;-82
2022/08/27 03:41:44;;;;;;;135.07;91.22;;;23.40;61.70;;;;;;4988452;28;20035;-74
2022/08/27 03:44:11;;;;;;;138.88;94.20;;;23.40;61.30;;;;;;4988407;28;20029;-73
2022/08/27 03:46:37;;;;;;;142.80;96.95;;;23.30;61.40;;;;;;4987885;28;20420;-73
2022/08/27 03:49:03;;;;;;;142.75;96.72;;;23.20;61.30;;;;;;4988354;28;20416;-72
2022/08/27 03:51:29;;;;;;;147.15;97.70;;;23.20;61.80;;;;;;4988356;28;20505;-73
2022/08/27 03:53:55;;;;;;;141.23;96.22;;;23.20;62.00;;;;;;4987591;28;20030;-73
2022/08/27 03:56:22;;;;;;;147.23;98.40;;;23.20;62.00;;;;;;4971564;28;20084;-73
2022/08/27 03:58:48;;;;;;;153.40;102.03;;;23.10;62.00;;;;;;4967324;28;20391;-73
2022/08/27 04:01:15;;;;;;;152.13;98.90;;;23.10;62.10;;;;;;4968653;28;20046;-73
2022/08/27 04:03:41;;;;;;;151.45;101.35;;;23.10;62.20;;;;;;4968363;28;20133;-73
2022/08/27 04:06:07;;;;;;;151.65;98.60;;;23.10;62.40;;;;;;4968326;28;20039;-74
2022/08/27 04:08:34;;;;;;;140.85;100.07;;;23.10;62.40;;;;;;4967760;28;20046;-73
2022/08/27 04:11:03;;;;;;;144.85;100.53;;;23.10;62.30;;;;;;4969222;28;20035;-74
2022/08/27 04:13:29;;;;;;;151.20;102.70;;;23.10;62.60;;;;;;4967464;28;20122;-74
2022/08/27 04:15:55;;;;;;;155.07;104.03;;;23.20;62.60;;;;;;4957855;28;20166;-76
2022/08/27 04:18:21;;;;;;;150.40;99.53;;;23.20;62.40;;;;;;4968867;28;20046;-75
2022/08/27 04:20:49;;;;;;;147.70;96.80;;;23.20;62.80;;;;;;4968087;28;20047;-76
2022/08/27 04:23:16;;;;;;;145.77;100.57;;;23.20;63.80;;;;;;4968830;28;20494;-76
2022/08/27 04:25:43;;;;;;;151.13;101.43;;;23.20;63.40;;;;;;4968504;28;20039;-76
2022/08/27 04:28:11;;;;;;;137.70;92.32;;;23.20;63.40;;;;;;4964782;28;20421;-76
2022/08/27 04:30:44;;;;;;;156.38;105.05;;;23.20;64.70;;;;;;4964024;28;20856;-75
2022/08/27 04:33:12;;;;;;;154.77;108.65;;;23.20;63.60;;;;;;4968515;28;20045;-76
2022/08/27 04:35:39;;;;;;;152.80;105.22;;;23.20;63.70;;;;;;4966720;28;20046;-76
2022/08/27 04:38:05;;;;;;;153.13;102.70;;;23.30;64.10;;;;;;4969308;28;20521;-76
2022/08/27 04:43:16;;;;;;;139.77;100.85;;;23.60;64.80;;;;;;4967396;28;20067;-76
2022/08/27 04:45:43;;;;;;;160.77;112.53;;;23.80;63.70;;;;;;4967487;28;20547;-75
2022/08/27 04:48:14;;;;;;;157.43;113.45;;;23.80;63.30;;;;;;4967915;28;20130;-75
2022/08/27 04:50:45;;;;;;;172.07;122.32;;;24.00;62.20;;;;;;4967560;28;20348;-75
2022/08/27 04:53:13;;;;;;;176.05;123.85;;;24.20;61.30;;;;;;4966846;28;20030;-75
2022/08/27 04:55:53;;;;;;;165.48;119.38;;;24.30;60.80;;;;;;4967362;28;20035;-76
2022/08/27 04:58:21;;;;;;;185.05;129.57;;;24.50;60.80;;;;;;4982227;28;20035;-75
2022/08/27 05:00:51;;;;;;;191.20;134.63;;;24.60;59.50;;;;;;4976858;28;20090;-76
2022/08/27 05:03:22;;;;;;;186.27;130.07;;;24.60;58.70;;;;;;4967988;28;20034;-76
2022/08/27 05:05:49;;;;;;;184.77;130.93;;;24.80;58.80;;;;;;4986182;28;20073;-75
2022/08/27 05:08:16;;;;;;;187.93;132.20;;;24.90;58.40;;;;;;4985406;28;20074;-76
2022/08/27 05:10:51;;;;;;;194.63;135.60;;;25.00;58.00;;;;;;4986535;28;20088;-76
2022/08/27 05:13:19;;;;;;;198.73;136.15;;;25.10;57.80;;;;;;4984224;28;20146;-76
2022/08/27 05:15:46;;;;;;;188.63;135.85;;;25.20;57.90;;;;;;4985783;28;20104;-76
2022/08/27 05:18:13;;;;;;;196.70;138.55;;;25.20;57.60;;;;;;5000312;28;20531;-75
2022/08/27 05:20:50;;;;;;;196.50;138.45;;;25.10;57.50;;;;;;4986092;28;20064;-76
2022/08/27 05:23:19;;;;;;;203.43;143.02;;;25.20;57.50;;;;;;4982730;28;20028;-76
2022/08/27 05:25:47;;;;;;;199.38;144.23;;;25.30;57.10;;;;;;4969205;28;20034;-76
2022/08/27 05:28:14;;;;;;;195.02;144.77;;;25.40;57.10;;;;;;4985441;28;20038;-76
2022/08/27 05:30:43;;;;;;;203.05;146.68;;;25.40;56.90;;;;;;4985988;28;20054;-76
2022/08/27 05:33:10;;;;;;;217.77;151.73;;;25.60;56.70;;;;;;4985474;28;20031;-75
2022/08/27 05:36:03;;;;;;;214.05;148.77;;;25.70;56.40;;;;;;4986168;28;20096;-76
2022/08/27 05:38:30;;;;;;;209.23;149.90;;;26.00;56.10;;;;;;4965289;28;20034;-76
2022/08/27 05:41:26;;;;;;;211.70;150.55;;;26.10;55.50;;;;;;4952790;28;20438;-76
2022/08/27 05:43:58;;;;;;;206.82;149.65;;;26.10;55.80;;;;;;4999843;28;20042;-76
2022/08/27 05:46:25;;;;;;;195.07;146.40;;;26.10;55.50;;;;;;4985240;28;20046;-77
2022/08/27 05:48:54;;;;;;;203.52;150.65;;;26.10;55.70;;;;;;4985180;28;20034;-77
2022/08/27 05:51:22;;;;;;;206.48;150.57;;;26.20;55.30;;;;;;4984857;28;20463;-76
2022/08/27 05:53:48;;;;;;;207.65;150.45;;;26.20;55.00;;;;;;4986690;28;20038;-76
2022/08/27 05:56:20;;;;;;;205.30;144.48;;;26.20;54.70;;;;;;4986936;28;20517;-76
2022/08/27 06:01:35;;;;;;;197.52;144.65;;;26.60;55.00;;;;;;4986203;28;20049;-76
2022/08/27 06:04:03;;;;;;;195.38;145.07;;;26.70;53.90;;;;;;4986256;28;20085;-77
2022/08/27 06:06:29;;;;;;;177.68;137.63;;;26.90;53.70;;;;;;4984798;28;20493;-76
2022/08/27 06:08:55;;;;;;;168.63;126.45;;;27.00;53.10;;;;;;4984781;28;20042;-75
2022/08/27 06:11:22;;;;;;;165.52;125.43;;;27.10;52.50;;;;;;4986386;28;20026;-76
2022/08/27 06:13:48;;;;;;;178.27;128.65;;;27.20;52.80;;;;;;4985581;28;20532;-76
2022/08/27 06:16:17;;;;;;;163.95;122.80;;;27.40;52.10;;;;;;4986030;28;20042;-76
2022/08/27 06:18:45;;;;;;;155.43;118.85;;;27.50;52.40;;;;;;4985848;28;20041;-76
2022/08/27 06:21:13;;;;;;;161.77;122.43;;;27.70;53.10;;;;;;4985722;28;20104;-76
2022/08/27 06:23:39;;;;;;;150.15;117.95;;;27.80;52.30;;;;;;4985260;28;20045;-76
2022/08/27 06:26:07;;;;;;;170.00;126.18;;;27.80;51.80;;;;;;4985490;28;20034;-77
2022/08/27 06:28:34;;;;;;;144.35;115.32;;;28.00;51.10;;;;;;4981500;28;20049;-76
2022/08/27 06:31:09;;;;;;;147.23;111.95;;;28.00;51.00;;;;;;4986207;28;20129;-77
2022/08/27 06:33:35;;;;;;;;;;;28.10;49.70;;;;;;4981664;28;20070;-77
2022/08/27 06:36:04;;;;;;;132.88;98.50;;;28.10;48.90;;;;;;4981210;28;20392;-78
2022/08/27 06:38:31;;;;;;;134.85;99.95;;;28.10;48.90;;;;;;4985021;28;20056;-76
2022/08/27 06:40:57;;;;;;;128.07;97.53;;;28.00;48.60;;;;;;4989281;28;20437;-77
2022/08/27 06:43:25;;;;;;;130.88;95.45;;;28.00;49.10;;;;;;4990568;28;20532;-78
2022/08/27 06:45:52;;;;;;;124.13;90.90;;;28.10;48.60;;;;;;4990466;28;20481;-77
2022/08/27 06:48:18;;;;;;;127.55;95.15;;;28.00;48.40;;;;;;4985730;28;20428;-77
2022/08/27 06:50:45;;;;;;;120.60;90.43;;;28.00;48.50;;;;;;4984560;28;20053;-78
2022/08/27 06:53:11;;;;;;;131.52;97.80;;;28.00;49.30;;;;;;4988781;28;20026;-77
2022/08/27 06:55:42;;;;;;;124.60;97.95;;;28.10;48.80;;;;;;4989735;28;20030;-77
2022/08/27 06:58:08;;;;;;;128.93;97.60;;;28.10;48.80;;;;;;4989475;28;20100;-77
2022/08/27 07:00:35;;;;;;;135.05;101.07;;;28.10;49.20;;;;;;4998095;28;20513;-76
2022/08/27 07:03:04;;;;;;;129.13;101.85;;;28.20;49.30;;;;;;4993460;28;20034;-77
2022/08/27 07:05:30;;;;;;;142.40;107.82;;;28.30;49.70;;;;;;4993029;28;20044;-77
2022/08/27 07:07:57;;;;;;;140.77;105.85;;;28.30;50.00;;;;;;5005524;28;20044;-77
2022/08/27 07:10:23;;;;;;;143.80;105.57;;;28.40;50.00;;;;;;4990303;28;20113;-76
2022/08/27 07:12:49;;;;;;;146.25;110.13;;;28.40;50.30;;;;;;4989844;28;20398;-77
2022/08/27 07:15:16;;;;;;;137.85;101.47;;;28.50;49.80;;;;;;4989793;28;20038;-77
2022/08/27 07:17:43;;;;;;;131.63;101.68;;;28.60;49.20;;;;;;4987550;28;20034;-76
2022/08/27 07:20:14;;;;;;;123.97;94.10;;;28.70;48.80;;;;;;4989507;28;20038;-77
2022/08/27 07:22:41;;;;;;;120.97;92.10;;;28.70;48.50;;;;;;4989301;28;20039;-77
2022/08/27 07:25:11;;;;;;;116.38;89.13;;;28.90;48.60;;;;;;4984429;28;20050;-77
2022/08/27 07:27:38;;;;;;;108.38;84.03;;;28.90;48.30;;;;;;4985140;28;20456;-76
2022/08/27 07:30:07;;;;;;;108.18;81.88;;;29.00;47.90;;;;;;4989121;28;20058;-76
2022/08/27 07:32:33;;;;;;;111.55;83.35;;;29.00;47.60;;;;;;4988858;28;20081;-75
2022/08/27 07:34:59;;;;;;;104.00;81.57;;;29.10;49.00;;;;;;4989903;28;20294;-76
2022/08/27 07:37:25;;;;;;;105.65;80.82;;;29.20;49.70;;;;;;4988910;28;20066;-75
2022/08/27 07:39:51;;;;;;;102.90;80.22;;;29.30;49.30;;;;;;5004138;28;20486;-76
2022/08/27 07:45:01;;;;;;;100.70;78.30;;;29.30;49.70;;;;;;4989562;28;20031;-76
2022/08/27 07:47:27;;;;;;;105.10;76.20;;;29.40;49.20;;;;;;4988767;28;20281;-79
2022/08/27 07:49:53;;;;;;;95.55;74.68;;;29.30;50.20;;;;;;4987923;28;20030;-78
2022/08/27 07:52:19;;;;;;;98.93;74.18;;;29.40;48.50;;;;;;4984107;28;20037;-77
2022/08/27 07:54:46;;;;;;;90.53;74.25;;;29.40;50.00;;;;;;5003253;28;20427;-75
2022/08/27 07:57:12;;;;;;;101.80;74.93;;;29.40;52.30;;;;;;4987590;28;20042;-76
2022/08/27 07:59:38;;;;;;;96.32;72.43;;;29.50;54.80;;;;;;4985469;28;20093;-76
2022/08/27 08:02:03;;;;;;;94.07;70.80;;;29.40;56.60;;;;;;4992575;28;20030;-75
2022/08/27 08:04:29;;;;;;;86.75;66.28;;;29.40;56.20;;;;;;4992281;28;20509;-77
2022/08/27 08:06:55;;;;;;;79.28;61.17;;;29.40;54.10;;;;;;4992242;28;20420;-77
2022/08/27 08:09:23;;;;;;;76.15;57.15;;;29.50;50.60;;;;;;4992812;28;20042;-76
2022/08/27 08:11:51;;;;;;;74.63;59.45;;;29.50;50.30;;;;;;4991707;28;20042;-75
2022/08/27 08:14:18;;;;;;;66.88;53.95;;;29.50;51.70;;;;;;4993561;28;20113;-76
2022/08/27 08:16:43;;;;;;;66.22;52.40;;;29.40;48.30;;;;;;4986578;28;20424;-81
2022/08/27 08:19:10;;;;;;;67.70;55.95;;;29.40;47.60;;;;;;4987878;28;20026;-78
2022/08/27 08:21:37;;;;;;;74.40;55.15;;;29.50;51.80;;;;;;4988598;28;20046;-78
2022/08/27 08:24:04;;;;;;;72.57;54.22;;;29.40;51.70;;;;;;5002887;28;20386;-79
2022/08/27 08:26:30;;;;;;;68.18;54.72;;;29.40;48.30;;;;;;4987539;28;20030;-78
2022/08/27 08:28:56;;;;;;;67.72;55.03;;;29.40;51.30;;;;;;4994191;28;20027;-79
2022/08/27 08:31:26;;;;;;;69.70;55.78;;;29.40;51.50;;;;;;4988056;28;20039;-79
2022/08/27 08:33:52;;;;;;;68.75;53.60;;;29.40;55.20;;;;;;4990069;28;20077;-78
2022/08/27 08:36:18;;;;;;;64.72;51.55;;;29.40;55.20;;;;;;4987384;28;20043;-78
2022/08/27 08:38:46;;;;;;;66.15;52.05;;;29.40;51.00;;;;;;4986999;28;20414;-79
2022/08/27 08:41:27;;;;;;;72.57;55.17;;;29.40;54.70;;;;;;4987404;28;20472;-79
2022/08/27 08:43:55;;;;;;;63.42;50.45;;;29.50;57.60;;;;;;4988666;28;20101;-77
2022/08/27 08:46:31;;;;;;;62.45;49.25;;;29.50;53.50;;;;;;4988580;28;20156;-78
2022/08/27 08:49:05;;;;;;;63.08;47.88;;;29.50;53.50;;;;;;4987956;28;20042;-79
2022/08/27 08:51:39;;;;;;;62.92;47.13;;;29.40;52.50;;;;;;4985012;28;20498;-79
2022/08/27 08:54:14;;;;;;;65.03;49.53;;;29.40;51.40;;;;;;4986445;28;20049;-77
2022/08/27 08:56:55;;;;;;;62.58;49.38;;;29.50;53.60;;;;;;4982211;28;20037;-78
2022/08/27 08:59:34;;;;;;;55.33;48.15;;;29.50;52.60;;;;;;4985497;28;20027;-78
2022/08/27 09:02:00;;;;;;;59.03;48.28;;;29.40;55.80;;;;;;4985063;28;20042;-78
2022/08/27 09:04:28;;;;;;;61.75;47.60;;;29.40;54.40;;;;;;4968700;28;20084;-76
2022/08/27 09:07:04;;;;;;;54.88;43.33;;;29.50;53.20;;;;;;4988483;28;20042;-79
2022/08/27 09:09:39;;;;;;;56.63;42.35;;;29.40;53.10;;;;;;4986375;28;20058;-79
2022/08/27 09:12:14;;;;;;;60.60;42.45;;;29.40;52.40;;;;;;4990688;28;20068;-78
2022/08/27 09:14:52;;;;;;;60.88;43.67;;;29.50;51.60;;;;;;4981804;28;20374;-81
2022/08/27 09:17:18;;;;;;;53.75;43.97;;;29.40;52.60;;;;;;4988908;28;20096;-85
2022/08/27 09:19:44;;;;;;;55.80;42.92;;;29.40;53.40;;;;;;4991530;28;20046;-82
2022/08/27 09:22:18;;;;;;;54.95;44.25;;;29.40;55.40;;;;;;4991225;28;20034;-80
2022/08/27 09:25:14;;;;;;;50.35;42.03;;;29.40;56.20;;;;;;4991742;28;20062;-81
2022/08/27 09:27:42;;;;;;;46.80;36.55;;;29.40;55.50;;;;;;4986905;28;20030;-79
2022/08/27 09:30:12;;;;;;;51.08;35.97;;;29.40;49.40;;;;;;4983902;28;20541;-78
2022/08/27 09:32:39;;;;;;;42.80;35.33;;;29.40;48.60;;;;;;4973331;28;20135;-78
2022/08/27 09:35:08;;;;;;;44.97;37.33;;;29.50;47.20;;;;;;4974089;28;20034;-79
2022/08/27 09:37:46;;;;;;;41.78;33.28;;;29.50;50.50;;;;;;4991702;28;20050;-77
2022/08/27 09:40:30;;;;;;;42.17;33.83;;;29.50;46.70;;;;;;4990102;28;20134;-79
2022/08/27 09:43:17;;;;;;;43.47;32.17;;;29.50;47.00;;;;;;4990566;28;20033;-78
2022/08/27 09:45:50;;;;;;;40.88;32.08;;;29.50;47.20;;;;;;4990419;28;20058;-79
2022/08/27 09:48:24;;;;;;;41.45;34.40;;;29.50;47.90;;;;;;4993895;28;20065;-85
2022/08/27 09:51:05;;;;;;;42.10;32.10;;;29.50;50.00;;;;;;4987762;28;20034;-82
2022/08/27 09:53:43;;;;;;;36.42;30.75;;;29.50;50.90;;;;;;4970585;28;20266;-81
2022/08/27 09:56:26;;;;;;;35.15;29.88;;;29.50;47.40;;;;;;4970924;28;20038;-82
2022/08/27 09:59:02;;;;;;;38.88;29.05;;;29.50;48.80;;;;;;4987985;28;20413;-87
2022/08/27 10:01:31;;;;;;;35.53;29.23;;;29.50;48.50;;;;;;4990272;28;20596;-81
2022/08/27 10:04:15;;;;;;;36.35;30.10;;;29.50;50.30;;;;;;4982486;28;20047;-84
2022/08/27 10:06:47;;;;;;;36.15;28.60;;;29.40;51.70;;;;;;4970175;28;20030;-81
2022/08/27 10:09:37;;;;;;;40.08;29.50;;;29.40;51.50;;;;;;4969328;28;20115;-84
2022/08/27 10:12:31;;;;;;;36.63;28.42;;;29.40;52.40;;;;;;4982380;28;20085;-83
2022/08/27 10:14:59;;;;;;;41.28;36.78;;;29.40;52.40;;;;;;4981945;28;20031;-83
2022/08/27 10:17:56;;;;;;;34.05;26.70;;;29.40;54.10;;;;;;4981511;28;20062;-80
2022/08/27 10:21:12;;;;;;;36.22;24.23;;;29.50;49.20;;;;;;4986425;28;20034;-82
2022/08/27 10:24:07;;;;;;;41.28;35.10;;;29.60;44.60;;;;;;4960791;28;20034;-85
2022/08/27 10:26:50;;;;;;;33.55;29.85;;;29.60;53.50;;;;;;4952551;28;20046;-88
2022/08/27 10:29:39;;;;;;;32.70;25.00;;;29.60;51.30;;;;;;4984033;28;20073;-83
2022/08/27 10:32:37;;;;;;;33.58;26.92;;;29.50;49.40;;;;;;4972220;28;20026;-85
2022/08/27 10:35:06;;;;;;;23.05;15.65;;;29.50;50.20;;;;;;4975026;28;20039;-88
2022/08/27 10:37:52;;;;;;;23.73;18.05;;;29.60;43.40;;;;;;4987274;28;20034;-83
2022/08/27 10:40:30;;;;;;;20.00;17.77;;;29.70;43.60;;;;;;5001384;28;20654;-87
2022/08/27 10:43:20;;;;;;;34.63;20.27;;;29.70;45.10;;;;;;4989273;28;20031;-93
2022/08/27 10:45:54;;;;;;;21.90;15.75;;;29.70;50.20;;;;;;5001113;28;20456;-78
2022/08/27 10:48:44;;;;;;;23.00;17.92;;;29.70;45.20;;;;;;4985463;28;20516;-81
2022/08/27 10:51:24;;;;;;;21.23;16.70;;;29.60;47.20;;;;;;4980767;28;20038;-80
2022/08/27 10:54:25;;;;;;;23.83;17.88;;;29.60;47.60;;;;;;4985354;28;20081;-83
2022/08/27 10:56:56;;;;;;;23.55;17.88;;;29.50;50.20;;;;;;4995572;28;20532;-81
2022/08/27 10:59:54;;;;;;;19.38;16.85;;;29.50;49.20;;;;;;4968001;28;20091;-81
2022/08/27 11:02:44;;;;;;;18.63;16.17;;;29.50;48.00;;;;;;4984195;28;20464;-80
2022/08/27 11:05:22;;;;;;;19.83;16.15;;;29.50;49.50;;;;;;5003662;28;20104;-81
2022/08/27 11:08:20;;;;;;;20.35;16.08;;;29.50;49.90;;;;;;4980187;28;20081;-80
2022/08/27 11:10:54;;;;;;;21.48;15.60;;;29.50;48.50;;;;;;4954015;28;20055;-81
2022/08/27 11:13:45;;;;;;;22.13;16.35;;;29.50;48.30;;;;;;4952187;28;20526;-84
2022/08/27 11:16:19;;;;;;;21.20;16.13;;;29.50;49.00;;;;;;4948649;28;20219;-83
2022/08/27 11:18:58;;;;;;;23.50;16.33;;;29.50;48.10;;;;;;4945422;28;20034;-79
2022/08/27 11:21:36;;;;;;;20.45;15.25;;;29.50;50.00;;;;;;4954132;28;20086;-77
2022/08/27 11:24:27;;;;;;;22.67;15.38;;;29.50;47.60;;;;;;4974621;28;20039;-84
2022/08/27 11:26:55;;;;;;;20.55;15.77;;;29.50;49.50;;;;;;5018891;22;20039;-93
2022/08/27 11:29:37;;;;;;;19.65;15.85;;;29.50;48.90;;;;;;5007064;28;20050;-90
2022/08/27 11:32:15;;;;;;;21.20;16.13;;;29.50;49.20;;;;;;5002587;28;20231;-93
2022/08/27 11:35:04;;;;;;;17.50;15.35;;;29.50;48.70;;;;;;5001457;28;20054;-94
2022/08/27 11:37:51;;;;;;;22.35;16.35;;;29.50;50.20;;;;;;4960460;29;20054;-87
2022/08/27 11:40:51;;;;;;;22.48;17.05;;;29.40;50.10;;;;;;4938153;29;20051;-83
2022/08/27 11:43:25;;;;;;;20.35;16.25;;;29.50;50.00;;;;;;4955009;29;20059;-89
2022/08/27 11:45:56;;;;;;;22.30;16.63;;;29.50;50.50;;;;;;4963124;29;20040;-91
2022/08/27 11:48:32;;;;;;;19.35;16.48;;;29.50;46.40;;;;;;4971705;28;20290;-89
2022/08/27 11:51:02;;;;;;;21.60;16.00;;;29.50;47.30;;;;;;4978162;28;20047;-90
2022/08/27 11:53:41;;;;;;;25.17;16.77;;;29.50;49.90;;;;;;4974530;28;20206;-82
2022/08/27 11:56:20;;;;;;;22.55;16.60;;;29.50;50.20;;;;;;5176914;23;20021;-79
2022/08/27 11:58:47;;;;;;;21.65;16.23;;;29.50;48.90;;;;;;5034431;28;20057;-79
2022/08/27 12:01:27;;;;;;;18.75;16.52;;;29.50;49.90;;;;;;5044182;28;20071;-80
2022/08/27 12:04:05;;;;;;;19.10;16.95;;;29.50;50.30;;;;;;5046479;28;20037;-87
2022/08/27 12:06:44;;;;;;;22.10;16.88;;;29.60;46.20;;;;;;5068424;28;20033;-85
2022/08/27 12:09:22;;;;;;;22.25;16.80;;;29.70;41.90;;;;;;5055310;28;20029;-82
2022/08/27 12:11:54;;;;;;;21.73;17.10;;;29.70;46.10;;;;;;5034750;28;20041;-81
2022/08/27 12:14:26;;;;;;;24.42;16.58;;;29.60;44.40;;;;;;5052383;28;20132;-81
2022/08/27 12:16:59;;;;;;;19.92;15.90;;;29.60;46.00;;;;;;5050001;28;20076;-86
2022/08/27 12:19:44;;;;;;;33.85;17.85;;;29.60;46.30;;;;;;5047208;28;20562;-89
2022/08/27 12:22:29;;;;;;;26.38;17.38;;;29.60;46.80;;;;;;5045276;28;20056;-87
2022/08/27 12:24:57;;;;;;;23.45;16.70;;;29.60;47.20;;;;;;5046891;28;20029;-91
2022/08/27 12:27:28;;;;;;;22.63;16.50;;;29.60;46.30;;;;;;5044406;28;20381;-88
2022/08/27 12:30:18;;;;;;;21.88;17.00;;;29.60;47.60;;;;;;5044973;28;20099;-84
2022/08/27 12:32:47;;;;;;;20.60;16.55;;;29.50;46.80;;;;;;5042801;28;20416;-89
2022/08/27 12:35:20;;;;;;;18.90;16.98;;;29.50;47.30;;;;;;5042763;28;20075;-87
2022/08/27 12:37:53;;;;;;;22.20;16.65;;;29.50;47.70;;;;;;5047072;28;20029;-85
2022/08/27 12:40:39;;;;;;;22.17;16.52;;;29.50;47.80;;;;;;5046953;28;20068;-89
2022/08/27 12:43:18;;;;;;;22.90;17.17;;;29.50;47.60;;;;;;5047978;28;20033;-89
2022/08/27 12:45:55;;;;;;;19.63;16.25;;;29.50;48.00;;;;;;5044890;28;20055;-89
2022/08/27 12:48:27;;;;;;;19.20;15.93;;;29.50;48.10;;;;;;5043723;28;20040;-89
2022/08/27 12:50:58;;;;;;;20.30;16.38;;;29.50;46.60;;;;;;5042212;28;20037;-86
2022/08/27 12:53:53;;;;;;;17.88;15.98;;;29.50;47.50;;;;;;5010209;28;20033;-89